createdAt,value
2023-07-11T01:58:35.240Z,19.10
2023-07-11T02:01:08.360Z,19.20
2023-07-11T02:03:41.543Z,19.20
2023-07-11T02:06:14.784Z,19.10
2023-07-11T02:08:48.242Z,19.00
2023-07-11T02:11:21.646Z,19.00
2023-07-11T02:13:55.129Z,19.00
2023-07-11T02:16:28.362Z,19.00
2023-07-11T02:19:01.443Z,19.00
2023-07-11T02:21:37.115Z,18.90
2023-07-11T02:24:12.470Z,18.90
2023-07-11T02:26:46.307Z,18.80
2023-07-11T02:29:19.337Z,18.80
2023-07-11T02:31:52.919Z,18.80
2023-07-11T02:34:26.266Z,18.70
2023-07-11T02:36:59.507Z,18.70
2023-07-11T02:39:32.795Z,18.70
2023-07-11T02:42:07.713Z,18.60
2023-07-11T02:44:41.060Z,18.60
2023-07-11T02:47:14.250Z,18.60
2023-07-11T02:49:47.402Z,18.50
2023-07-11T02:52:20.534Z,18.50
2023-07-11T02:54:53.527Z,18.50
2023-07-11T02:57:26.636Z,18.40
2023-07-11T03:00:00.267Z,18.40
2023-07-11T03:02:33.598Z,18.30
2023-07-11T03:05:09.345Z,18.40
2023-07-11T03:07:43.936Z,18.30
2023-07-11T03:10:17.057Z,18.30
2023-07-11T03:12:50.168Z,18.30
2023-07-11T03:15:23.193Z,18.20
2023-07-11T03:17:56.465Z,18.20
2023-07-11T03:20:29.581Z,18.20
2023-07-11T03:23:02.939Z,18.20
2023-07-11T03:25:37.264Z,18.20
2023-07-11T03:28:10.576Z,18.30
2023-07-11T03:30:44.091Z,18.20
2023-07-11T03:33:17.639Z,18.20
2023-07-11T03:35:52.293Z,18.20
2023-07-11T03:38:25.433Z,18.20
2023-07-11T03:40:58.562Z,18.20
2023-07-11T03:43:31.814Z,18.20
2023-07-11T03:46:05.037Z,18.20
2023-07-11T03:48:38.292Z,18.20
2023-07-11T03:51:11.308Z,18.20
2023-07-11T03:53:44.447Z,18.20
2023-07-11T03:56:17.432Z,18.30
2023-07-11T03:58:50.927Z,18.20
2023-07-11T04:01:24.103Z,18.30
2023-07-11T04:03:57.301Z,18.30
2023-07-11T04:06:30.292Z,18.30
2023-07-11T04:09:04.283Z,18.30
2023-07-11T04:11:37.370Z,18.30
2023-07-11T04:14:11.526Z,18.30
2023-07-11T04:16:44.820Z,18.40
2023-07-11T04:19:18.580Z,18.40
2023-07-11T04:21:51.668Z,18.40
2023-07-11T04:24:24.807Z,18.40
2023-07-11T04:26:57.865Z,18.40
2023-07-11T04:29:31.059Z,18.40
2023-07-11T04:32:04.673Z,18.50
2023-07-11T04:34:37.819Z,18.40
2023-07-11T04:37:10.934Z,18.50
2023-07-11T04:39:44.063Z,18.40
2023-07-11T04:42:17.531Z,18.50
2023-07-11T04:44:50.626Z,18.60
2023-07-11T04:47:23.964Z,18.60
2023-07-11T04:49:57.263Z,18.60
2023-07-11T04:52:30.591Z,18.60
2023-07-11T04:55:03.727Z,18.60
2023-07-11T04:57:37.126Z,18.60
2023-07-11T05:00:10.971Z,18.60
2023-07-11T05:02:44.308Z,18.70
2023-07-11T05:05:18.005Z,18.80
2023-07-11T05:07:51.480Z,18.80
2023-07-11T05:10:24.552Z,18.90
2023-07-11T05:13:01.278Z,19.00
2023-07-11T05:15:34.764Z,19.10
2023-07-11T05:18:07.796Z,19.10
2023-07-11T05:20:40.979Z,19.20
2023-07-11T05:23:13.969Z,19.30
2023-07-11T05:25:47.072Z,19.40
2023-07-11T05:28:20.166Z,19.60
2023-07-11T05:30:54.450Z,19.80
2023-07-11T05:33:27.516Z,19.90
2023-07-11T05:36:34.310Z,20.10
2023-07-11T05:39:11.826Z,20.20
2023-07-11T05:45:07.014Z,20.60
2023-07-11T05:47:40.440Z,20.80
2023-07-11T05:50:13.546Z,21.00
2023-07-11T05:52:46.584Z,21.20
2023-07-11T05:55:20.901Z,21.50
2023-07-11T05:57:54.073Z,21.70
2023-07-11T06:23:32.247Z,23.80
2023-07-11T06:26:06.373Z,23.90
2023-07-11T06:28:40.097Z,24.10
2023-07-11T06:31:14.354Z,24.30
2023-07-11T06:33:49.152Z,24.40
2023-07-11T09:53:42.379Z,31.10
2023-07-11T09:56:18.955Z,31.10
2023-07-11T09:59:03.545Z,31.10
2023-07-11T10:01:38.061Z,31.10
2023-07-11T10:04:21.755Z,31.00
2023-07-11T10:07:01.553Z,31.10
2023-07-11T10:09:45.192Z,31.10
2023-07-11T10:12:23.952Z,31.20
2023-07-11T10:15:02.539Z,31.30
2023-07-11T10:17:38.287Z,31.40
2023-07-11T10:20:20.092Z,31.50
2023-07-11T10:23:04.421Z,31.60
2023-07-11T10:25:37.645Z,31.80
2023-07-11T10:28:20.213Z,31.90
2023-07-11T10:30:53.797Z,32.00
2023-07-11T10:33:44.664Z,32.10
2023-07-11T10:36:32.366Z,32.20
2023-07-11T10:39:12.783Z,32.30
2023-07-11T10:42:04.088Z,32.50
2023-07-11T10:44:44.365Z,32.70
2023-07-11T10:47:31.204Z,32.60
2023-07-11T10:50:10.497Z,32.80
2023-07-11T10:58:24.621Z,33.10
2023-07-11T11:01:22.800Z,33.20
2023-07-11T11:04:14.385Z,33.10
2023-07-11T11:07:02.600Z,33.00
2023-07-11T11:10:00.615Z,33.00
2023-07-11T11:12:43.284Z,33.00
2023-07-11T11:15:38.737Z,33.00
2023-07-11T11:18:36.307Z,33.10
2023-07-11T11:21:30.054Z,33.30
2023-07-11T11:24:06.120Z,33.30
2023-07-11T11:26:57.294Z,33.50
2023-07-11T11:30:08.243Z,33.60
2023-07-11T11:32:55.536Z,33.50
2023-07-11T11:35:50.330Z,33.60
2023-07-11T11:38:41.945Z,33.60
2023-07-11T11:41:28.572Z,33.70
2023-07-11T11:52:02.722Z,34.00
2023-07-11T11:54:44.774Z,34.00
2023-07-11T11:57:34.565Z,34.00
2023-07-11T12:00:41.196Z,34.00
2023-07-11T12:03:26.234Z,33.90
2023-07-11T12:06:23.694Z,33.80
2023-07-11T12:09:18.603Z,33.80
2023-07-11T12:12:13.395Z,33.90
2023-07-11T12:14:59.821Z,33.90
2023-07-11T12:17:34.974Z,34.00
2023-07-11T12:20:08.547Z,34.00
2023-07-11T12:22:41.603Z,33.90
2023-07-11T12:25:29.967Z,33.90
2023-07-11T12:28:03.392Z,34.00
2023-07-11T12:30:40.347Z,33.90
2023-07-11T12:33:24.644Z,33.90
2023-07-11T12:36:21.333Z,33.70
2023-07-11T12:39:10.681Z,33.60
2023-07-11T12:42:05.607Z,33.30
2023-07-11T12:44:39.231Z,33.10
2023-07-11T12:47:20.380Z,32.90
2023-07-11T12:49:55.298Z,32.80
2023-07-11T12:52:28.489Z,32.70
2023-07-11T12:55:04.139Z,32.70
2023-07-11T12:57:48.919Z,32.70
2023-07-11T13:00:23.922Z,32.60
2023-07-11T13:03:33.796Z,32.60
2023-07-11T13:06:22.808Z,32.70
2023-07-11T13:08:57.307Z,32.70
2023-07-11T13:11:31.685Z,32.70
2023-07-11T13:14:11.307Z,32.70
2023-07-11T13:16:47.511Z,32.60
2023-07-11T13:19:22.925Z,32.60
2023-07-11T13:21:56.249Z,32.60
2023-07-11T13:24:29.844Z,32.60
2023-07-11T13:27:06.030Z,32.60
2023-07-11T13:29:40.315Z,32.60
2023-07-11T13:32:24.028Z,32.60
2023-07-11T13:35:22.380Z,32.60
2023-07-11T13:37:55.633Z,32.60
2023-07-11T13:40:40.474Z,32.60
2023-07-11T13:43:22.199Z,32.60
2023-07-11T13:46:00.892Z,32.60
2023-07-11T13:48:36.273Z,32.60
2023-07-11T13:51:25.992Z,32.70
2023-07-11T13:54:11.819Z,32.70
2023-07-11T13:56:44.895Z,32.80
2023-07-11T13:59:18.429Z,32.70
2023-07-11T14:01:52.737Z,32.70
2023-07-11T14:04:30.658Z,32.60
2023-07-11T14:07:03.899Z,32.60
2023-07-11T14:09:37.448Z,32.50
2023-07-11T14:12:14.541Z,32.40
2023-07-11T14:14:47.760Z,32.40
2023-07-11T14:17:21.570Z,32.30
2023-07-11T14:19:54.692Z,32.40
2023-07-11T14:22:27.795Z,32.50
2023-07-11T14:25:00.984Z,32.60
2023-07-11T14:27:33.900Z,32.60
2023-07-11T14:30:17.092Z,32.60
2023-07-11T14:32:50.114Z,32.60
2023-07-11T14:35:27.542Z,32.60
2023-07-11T14:38:01.832Z,32.50
2023-07-11T14:40:35.578Z,32.40
2023-07-11T14:43:21.807Z,32.30
2023-07-11T14:45:55.525Z,32.20
2023-07-11T14:48:28.870Z,32.10
2023-07-11T14:51:06.077Z,32.10
2023-07-11T14:53:43.555Z,32.10
2023-07-11T14:58:58.213Z,32.10
2023-07-11T15:01:31.415Z,32.10
2023-07-11T15:12:54.800Z,31.80
2023-07-11T15:17:33.142Z,31.70
2023-07-11T15:20:14.104Z,31.50
2023-07-11T15:22:51.447Z,31.40
2023-07-11T15:25:38.111Z,31.30
2023-07-11T15:28:27.300Z,31.10
2023-07-11T15:31:02.454Z,30.90
2023-07-11T15:33:43.527Z,30.60
2023-07-11T15:36:16.599Z,30.40
2023-07-11T15:38:49.686Z,30.20
2023-07-11T15:41:22.842Z,30.00
2023-07-11T15:43:55.861Z,29.90
2023-07-11T15:46:29.269Z,29.80
2023-07-11T15:49:04.392Z,29.80
2023-07-11T15:51:37.410Z,29.80
2023-07-11T15:54:10.434Z,29.80
2023-07-11T15:56:46.509Z,29.80
2023-07-11T15:59:21.593Z,29.70
2023-07-11T16:01:54.722Z,29.70
2023-07-11T16:04:28.040Z,29.60
2023-07-11T16:07:03.643Z,29.60
2023-07-11T16:09:40.219Z,29.60
2023-07-11T16:12:19.963Z,29.50
2023-07-11T16:14:55.906Z,29.30
2023-07-11T16:20:49.644Z,28.80
2023-07-11T16:23:42.825Z,28.60
2023-07-11T16:26:22.598Z,28.50
2023-07-11T16:29:04.137Z,28.30
2023-07-11T16:31:47.967Z,28.30
2023-07-11T16:34:51.476Z,28.20
2023-07-11T16:37:30.866Z,28.10
2023-07-11T16:44:44.512Z,28.00
2023-07-11T16:47:27.546Z,27.90
2023-07-11T16:50:10.595Z,27.80
2023-07-11T16:52:44.854Z,27.80
2023-07-11T16:55:18.347Z,27.90
2023-07-11T16:57:54.505Z,27.90
2023-07-11T17:00:28.112Z,28.00
2023-07-11T17:03:01.466Z,28.10
2023-07-11T17:05:34.785Z,28.10
2023-07-11T17:08:16.564Z,28.20
2023-07-11T17:10:57.746Z,28.20
2023-07-11T17:14:13.719Z,28.20
2023-07-11T17:16:59.174Z,28.30
2023-07-11T17:23:03.564Z,28.30
2023-07-11T17:26:03.959Z,28.30
2023-07-11T17:32:26.986Z,28.30
2023-07-11T17:35:01.585Z,28.30
2023-07-11T17:37:38.452Z,28.30
2023-07-11T17:40:22.813Z,28.30
2023-07-11T17:42:56.030Z,28.30
2023-07-11T17:45:46.502Z,28.30
2023-07-11T17:48:37.387Z,28.30
2023-07-11T17:52:22.393Z,28.40
2023-07-11T17:55:24.854Z,28.30
2023-07-11T17:58:23.145Z,28.30
2023-07-11T18:01:08.271Z,28.30
2023-07-11T18:04:09.162Z,28.30
2023-07-11T18:06:51.249Z,28.30
2023-07-11T18:09:32.079Z,28.30
2023-07-11T18:24:39.603Z,28.30
2023-07-11T18:31:35.224Z,28.20
2023-07-11T18:34:10.659Z,28.10
2023-07-11T18:36:43.835Z,28.20
2023-07-11T18:39:19.275Z,28.20
2023-07-11T18:42:10.125Z,28.20
2023-07-11T18:46:05.511Z,28.10
2023-07-11T18:49:22.407Z,28.10
2023-07-11T18:51:55.482Z,28.10
2023-07-11T18:54:38.218Z,28.10
2023-07-11T18:57:49.365Z,28.10
2023-07-11T19:00:28.425Z,28.00
2023-07-11T19:03:06.102Z,28.10
2023-07-11T19:05:40.858Z,28.10
2023-07-11T19:08:18.895Z,28.00
2023-07-11T19:10:52.473Z,28.00
2023-07-11T19:13:25.511Z,27.90
2023-07-11T19:15:58.508Z,27.90
2023-07-11T19:18:31.695Z,27.80
2023-07-11T19:21:04.868Z,27.80
2023-07-11T19:23:38.847Z,27.80
2023-07-11T19:26:15.799Z,27.70
2023-07-11T19:28:49.034Z,27.70
2023-07-11T19:31:22.329Z,27.60
2023-07-11T19:33:55.458Z,27.50
2023-07-11T19:36:28.513Z,27.50
2023-07-11T19:39:01.589Z,27.50
2023-07-11T19:41:35.033Z,27.50
2023-07-11T19:44:08.077Z,27.40
2023-07-11T19:46:42.122Z,27.40
2023-07-11T19:49:15.697Z,27.40
2023-07-11T19:51:48.703Z,27.40
2023-07-11T19:54:22.092Z,27.30
2023-07-11T19:56:55.110Z,27.30
2023-07-11T19:59:28.054Z,27.30
2023-07-11T20:02:00.984Z,27.20
2023-07-11T20:04:33.961Z,27.10
2023-07-11T20:07:12.504Z,27.10
2023-07-11T20:09:45.781Z,27.10
2023-07-11T20:12:31.105Z,27.00
2023-07-11T20:15:04.677Z,27.00
2023-07-11T20:17:37.632Z,27.00
2023-07-11T20:20:20.756Z,27.00
2023-07-11T20:22:54.137Z,27.00
2023-07-11T20:25:27.460Z,26.90
2023-07-11T20:28:13.920Z,26.90
2023-07-11T20:30:48.857Z,26.90
2023-07-11T20:33:22.424Z,26.90
2023-07-11T20:35:57.477Z,26.80
2023-07-11T20:38:30.537Z,26.80
2023-07-11T20:41:03.521Z,26.70
2023-07-11T20:43:36.560Z,26.60
2023-07-11T20:46:16.241Z,26.60
2023-07-11T20:48:50.202Z,26.50
2023-07-11T20:51:23.314Z,26.40
2023-07-11T20:53:57.057Z,26.40
2023-07-11T20:56:30.234Z,26.40
2023-07-11T20:59:03.675Z,26.40
2023-07-11T21:01:38.074Z,26.40
2023-07-11T21:04:11.071Z,26.40
2023-07-11T21:06:45.752Z,26.40
2023-07-11T21:09:19.673Z,26.40
2023-07-11T21:11:52.757Z,26.40
2023-07-11T21:14:27.788Z,26.40
2023-07-11T21:17:00.905Z,26.40
2023-07-11T21:19:33.928Z,26.40
2023-07-11T21:22:12.221Z,26.40
2023-07-11T21:24:45.092Z,26.40
2023-07-11T21:27:18.120Z,26.40
2023-07-11T21:29:51.612Z,26.40
2023-07-11T21:32:25.137Z,26.40
2023-07-11T21:34:58.659Z,26.40
2023-07-11T21:37:31.613Z,26.30
2023-07-11T21:40:20.444Z,26.30
2023-07-11T21:42:53.733Z,26.30
2023-07-11T21:45:29.339Z,26.30
2023-07-11T21:48:03.306Z,26.30
2023-07-11T21:50:57.154Z,26.20
2023-07-11T21:53:31.636Z,26.20
2023-07-11T21:56:25.315Z,26.10
2023-07-11T21:59:01.935Z,26.10
2023-07-11T22:01:38.026Z,26.10
2023-07-11T22:04:11.137Z,26.00
2023-07-11T22:06:44.851Z,25.90
2023-07-11T22:09:19.987Z,25.90
2023-07-11T22:11:53.031Z,25.80
2023-07-11T22:14:28.838Z,25.80
2023-07-11T22:17:24.464Z,25.70
2023-07-11T22:19:54.843Z,25.60
2023-07-11T22:22:28.183Z,25.60
2023-07-11T22:25:02.335Z,25.60
2023-07-11T22:27:35.908Z,25.50
2023-07-11T22:30:21.958Z,25.40
2023-07-11T22:32:56.589Z,25.30
2023-07-11T22:35:30.145Z,25.30
2023-07-11T22:38:04.789Z,25.20
2023-07-11T22:40:41.184Z,25.10
2023-07-11T22:43:18.531Z,25.00
2023-07-11T22:45:53.663Z,24.90
2023-07-11T22:48:28.908Z,24.90
2023-07-11T22:51:01.906Z,24.90
2023-07-11T22:53:34.992Z,24.80
2023-07-11T22:56:18.844Z,24.90
2023-07-11T22:58:53.854Z,24.90
2023-07-11T23:01:27.052Z,24.80
2023-07-11T23:04:00.185Z,24.80
2023-07-11T23:06:33.230Z,24.80
2023-07-11T23:09:06.623Z,24.70
2023-07-11T23:11:39.817Z,24.70
2023-07-11T23:14:13.403Z,24.70
2023-07-11T23:16:47.513Z,24.70
2023-07-11T23:19:20.819Z,24.70
2023-07-11T23:21:54.123Z,24.70
2023-07-11T23:24:27.132Z,24.60
2023-07-11T23:27:01.456Z,24.60
2023-07-11T23:29:35.182Z,24.60
2023-07-11T23:32:08.687Z,24.50
2023-07-11T23:34:41.743Z,24.50
2023-07-11T23:37:15.153Z,24.50
2023-07-11T23:39:48.182Z,24.50
2023-07-11T23:42:21.246Z,24.40
2023-07-11T23:44:54.566Z,24.40
2023-07-11T23:47:27.842Z,24.30
2023-07-11T23:50:00.848Z,24.20
2023-07-11T23:52:33.835Z,24.20
2023-07-11T23:55:07.064Z,24.10
2023-07-11T23:57:40.117Z,24.00
